Block Island, RI

12:04 AM EST on March 06, 2015 (GMT -0500)
Champlins Road - near Coast Guard | Change Station
CLOSE
Current Station
Personal Weather Station
Location: Block Island, RI
Elevation: 50 ft
Nearby Weather Stations

Elev 50 ft 41.19 °N, 71.59 °W | Updated 0 second ago

Mostly Cloudy
Mostly Cloudy
22.9 °F
Feels Like 11 °F
N
12.0
Wind Variable Wind from NW
Gusts 19.0 mph

Today
High -- | Low -- °F
--% Chance of Precip.
Yesterday
High -- | Low -- °F
Precip. -- in
6:13 AM 5:42 PM
Full, 100% visible
Pressure 30.27 in
Visibility 10.0 miles
Clouds Mostly Cloudy 12000 ft
Windchill 11 °F
Dew Point 17 °F
Humidity 79%
Rainfall in
Snow Depth Not available.
UV 0.0 out of 12
Pollen .50 out of 12
Air Quality Not available.
Flu Activity Not available.
METAR KBID 060455Z AUTO 35010G19KT 10SM BKN120 M06/M14 A3027 RMK AO1

More Conditions Fewer Conditions

Pressure 30.27 in
Visibility 10.0 miles
Clouds Mostly Cloudy 12000 ft
Windchill 11 °F
Dew Point 17 °F
Humidity 79%
Rainfall in
Snow Depth Not available.
UV 0.0 out of 12
Pollen .50 out of 12
Air Quality Not available.
Flu Activity Not available.
METAR KBID 060455Z AUTO 35010G19KT 10SM BKN120 M06/M14 A3027 RMK AO1

More Conditions Fewer Conditions

10-Day Weather Forecast

Almanac

Astronomy

Mar. 06, 2015 Rise Set
Actual Time
Civil Twilight
Nautical Twilight
Astronomical Twilight
Moon
Length of Visible Light
Length of Day
Tomorrow will be .
, % of the Moon is Illuminated

Today's Extremes

State Highs State Lows

Community

WunderPhotos

Upload Photos

1,803,184 photos uploaded!

WunderBlogs® & News

Nearby

Air Quality

  Air Quality AQ Index Pollutant
Not available.

Snow Depth

Station Depth Elevation

Earthquake Activity

City Distance Mag. Time & Date
Minimum magnitude displayed is 2.5.

Coastal Water Temperatures

Place Temperature

Nearby Weather Stations